Time;durP1;ratioP1;P1;durP2;ratioP2;P2;SDS_P1;SDS_P2;PMS_P1;PMS_P2;Temp;Humidity;BMP_temperature;BMP_pressure;BME280_temperature;BME280_humidity;BME280_pressure;Samples;Min_cycle;Max_cycle;Signal;HPM_P1;HPM_P2
2022/09/12 00:01:51;;;;;;;8.45;3.45;;;;;;;16.00;66.94;98448.09;4487164;31;20137;-79
2022/09/12 00:04:17;;;;;;;8.35;2.97;;;;;;;15.83;67.55;98447.66;4487203;32;20081;-79
2022/09/12 00:06:42;;;;;;;8.52;3.20;;;;;;;15.53;68.41;98446.50;4486004;32;20100;-79
2022/09/12 00:09:11;;;;;;;8.73;3.10;;;;;;;15.69;67.96;98446.09;4487265;32;20089;-79
2022/09/12 00:11:43;;;;;;;8.10;3.00;;;;;;;15.82;67.58;98453.06;4486144;32;20093;-79
2022/09/12 00:14:10;;;;;;;8.82;2.90;;;;;;;16.09;66.51;98439.37;4486036;32;20119;-79
2022/09/12 00:16:36;;;;;;;;;;;;;;;15.91;67.26;98452.34;4486334;32;20108;-79
2022/09/12 00:19:03;;;;;;;8.43;3.05;;;;;;;16.06;66.62;98444.94;4487259;31;20375;-79
2022/09/12 00:21:29;;;;;;;8.00;3.08;;;;;;;15.83;67.21;98445.00;4487271;31;20088;-79
2022/09/12 00:23:54;;;;;;;9.15;3.12;;;;;;;15.83;67.47;98449.47;4486088;32;20183;-79
2022/09/12 00:26:20;;;;;;;7.70;2.87;;;;;;;15.58;68.26;98442.62;4486248;32;20105;-79
2022/09/12 00:28:46;;;;;;;8.30;3.10;;;;;;;15.86;67.63;98441.25;4487236;31;20084;-79
2022/09/12 00:31:14;;;;;;;8.88;2.97;;;;;;;15.46;68.77;98441.78;4485797;32;20136;-79
2022/09/12 00:33:40;;;;;;;9.35;3.30;;;;;;;15.83;67.73;98445.00;4486116;32;20076;-79
2022/09/12 00:36:09;;;;;;;9.05;3.42;;;;;;;15.96;67.22;98452.81;4487161;31;20483;-79
2022/09/12 00:38:37;;;;;;;7.45;2.92;;;;;;;15.69;67.86;98440.78;4485928;32;20139;-80
2022/09/12 00:41:04;;;;;;;7.87;3.20;;;;;;;16.01;66.82;98441.78;4487072;31;20092;-80
2022/09/12 00:43:29;;;;;;;10.03;3.50;;;;;;;16.08;66.37;98448.28;4487083;31;20080;-80
2022/09/12 00:46:01;;;;;;;9.23;3.53;;;;;;;15.91;66.85;98447.03;4487215;31;20387;-80
2022/09/12 00:48:48;;;;;;;8.23;3.20;;;;;;;15.80;67.71;98450.56;4486187;32;20139;-80
2022/09/12 00:51:14;;;;;;;8.88;3.22;;;;;;;15.30;70.08;98452.81;4486021;32;20492;-80
2022/09/12 00:53:40;;;;;;;9.27;3.60;;;;;;;15.67;68.68;98447.19;4485730;32;20092;-80
2022/09/12 00:56:06;;;;;;;9.57;3.60;;;;;;;15.62;68.99;98449.38;4485833;32;20156;-80
2022/09/12 00:58:38;;;;;;;9.07;3.45;;;;;;;15.65;68.59;98439.34;4485845;32;20523;-80
2022/09/12 01:01:03;;;;;;;10.20;3.60;;;;;;;15.69;68.68;98447.91;4485597;32;20100;-80
2022/09/12 01:03:30;;;;;;;9.38;3.60;;;;;;;15.98;67.65;98440.25;4487029;31;20333;-80
2022/09/12 01:06:05;;;;;;;8.95;3.67;;;;;;;15.65;68.89;98430.53;4484887;32;20185;-80
2022/09/12 01:08:32;;;;;;;10.23;3.53;;;;;;;15.72;68.27;98426.41;4485801;32;20108;-80
2022/09/12 01:10:57;;;;;;;9.45;3.60;;;;;;;15.59;68.89;98437.19;4485605;32;20440;-80
2022/09/12 01:13:23;;;;;;;9.70;4.05;;;;;;;15.90;67.91;98440.03;4485665;32;20127;-80
2022/09/12 01:15:48;;;;;;;9.35;3.60;;;;;;;15.79;68.06;98438.25;4485676;32;20139;-80
2022/09/12 01:18:20;;;;;;;8.70;3.60;;;;;;;15.61;68.63;98437.06;4485602;32;20447;-80
2022/09/12 01:21:18;;;;;;;9.23;3.42;;;;;;;15.70;68.33;98441.62;4486543;32;20096;-80
2022/09/12 01:23:56;;;;;;;9.88;3.78;;;;;;;15.68;68.21;98438.25;4486853;32;20432;-80
2022/09/12 01:26:36;;;;;;;8.82;3.50;;;;;;;15.69;67.97;98439.94;4486789;31;20451;-80
2022/09/12 01:29:29;;;;;;;8.50;3.12;;;;;;;15.62;67.97;98428.12;4486603;32;20108;-80
2022/09/12 01:32:02;;;;;;;10.80;3.20;;;;;;;15.75;67.29;98420.03;4486773;31;20092;-80
2022/09/12 01:34:34;;;;;;;8.30;2.87;;;;;;;15.22;69.28;98440.13;4486662;31;20096;-80
2022/09/12 01:37:08;;;;;;;8.82;3.30;;;;;;;15.06;69.80;98429.88;4485499;32;20123;-80
2022/09/12 01:39:46;;;;;;;8.90;3.45;;;;;;;15.53;68.29;98440.34;4485344;32;20123;-80
2022/09/12 01:42:29;;;;;;;8.53;3.50;;;;;;;15.65;68.14;98443.81;4486614;32;20119;-80
2022/09/12 01:44:58;;;;;;;9.30;3.83;;;;;;;15.33;69.66;98442.75;4485421;32;20461;-80
2022/09/12 01:47:49;;;;;;;10.70;3.95;;;;;;;15.23;70.64;98446.28;4486438;32;20455;-80
2022/09/12 01:50:33;;;;;;;10.88;4.18;;;;;;;15.25;70.79;98425.78;4476219;32;20096;-80
2022/09/12 01:53:19;;;;;;;10.75;4.07;;;;;;;15.00;72.29;98450.75;4486408;31;20107;-80
2022/09/12 01:55:50;;;;;;;9.93;4.22;;;;;;;15.29;70.73;98453.75;4485338;32;20084;-80
2022/09/12 01:58:40;;;;;;;10.32;3.50;;;;;;;15.19;71.05;98448.34;4485491;32;20131;-80
2022/09/12 02:01:32;;;;;;;9.48;4.10;;;;;;;15.07;71.45;98444.84;4486042;32;20080;-80
2022/09/12 02:04:04;;;;;;;10.75;4.03;;;;;;;15.11;71.00;98434.84;4479092;32;20622;-80
2022/09/12 02:06:34;;;;;;;11.52;4.70;;;;;;;14.98;71.82;98434.09;4486178;32;20080;-80
2022/09/12 02:09:14;;;;;;;10.52;4.35;;;;;;;15.02;71.85;98443.50;4486077;31;20192;-80
2022/09/12 02:11:42;;;;;;;10.77;4.18;;;;;;;15.30;70.68;98444.84;4485094;32;20123;-80
2022/09/12 02:14:28;;;;;;;9.82;4.25;;;;;;;15.00;71.62;98448.09;4484844;32;20504;-80
2022/09/12 02:17:06;;;;;;;10.32;4.12;;;;;;;15.13;71.24;98451.47;4471787;32;20152;-80
2022/09/12 02:19:36;;;;;;;9.40;3.93;;;;;;;15.43;70.34;98445.56;4486815;32;20100;-80
2022/09/12 02:22:03;;;;;;;9.98;4.10;;;;;;;15.63;69.39;98441.28;4486833;32;20108;-80
2022/09/12 02:24:38;;;;;;;10.65;4.60;;;;;;;15.49;69.51;98436.22;4486850;32;20160;-80
2022/09/12 02:27:09;;;;;;;10.45;4.68;;;;;;;15.45;69.41;98440.97;4486821;32;20137;-80
2022/09/12 02:29:34;;;;;;;11.75;4.85;;;;;;;15.45;70.05;98442.75;4486881;32;20123;-80
2022/09/12 02:32:04;;;;;;;13.23;5.40;;;;;;;15.39;70.28;98449.38;4486948;32;20101;-80
2022/09/12 02:34:48;;;;;;;12.52;6.03;;;;;;;15.37;71.12;98451.31;4487972;31;20092;-80
2022/09/12 02:37:38;;;;;;;12.50;6.18;;;;;;;15.41;71.29;98455.41;4486872;32;20106;-80
2022/09/12 02:40:05;;;;;;;12.80;6.60;;;;;;;14.90;74.14;98458.56;4487898;32;20471;-80
2022/09/12 02:42:31;;;;;;;;;;;;;;;15.25;72.90;98460.28;4487061;32;20123;-79
2022/09/12 02:44:56;;;;;;;14.38;6.62;;;;;;;15.12;73.17;98450.62;4486821;32;20347;-79
2022/09/12 02:47:57;;;;;;;13.57;6.72;;;;;;;15.14;73.41;98454.00;4487620;31;20416;-80
2022/09/12 02:50:22;;;;;;;14.75;7.12;;;;;;;15.16;73.24;98453.03;4487656;32;20681;-79
2022/09/12 02:52:49;;;;;;;15.00;7.80;;;;;;;15.31;73.05;98459.78;4488018;32;20092;-79
2022/09/12 02:55:15;;;;;;;14.10;7.60;;;;;;;15.09;73.89;98460.63;4486946;32;20076;-80
2022/09/12 02:57:41;;;;;;;13.18;7.00;;;;;;;15.16;73.82;98466.28;4488108;31;20137;-79
2022/09/12 03:00:07;;;;;;;14.35;6.85;;;;;;;15.35;72.83;98461.22;4487492;31;20101;-80
2022/09/12 03:03:15;;;;;;;14.20;6.68;;;;;;;15.37;71.97;98464.59;4487650;31;20486;-80
2022/09/12 03:05:58;;;;;;;13.05;6.97;;;;;;;15.09;73.39;98466.78;4476769;32;20460;-80
2022/09/12 03:08:39;;;;;;;13.55;6.60;;;;;;;15.14;72.94;98458.44;4486619;32;20110;-80
2022/09/12 03:11:19;;;;;;;13.02;6.25;;;;;;;15.18;72.32;98459.06;4487808;32;20127;-79
2022/09/12 03:14:03;;;;;;;11.85;5.57;;;;;;;15.04;72.53;98453.03;4487652;31;20085;-80
2022/09/12 03:16:50;;;;;;;11.57;5.28;;;;;;;15.19;71.39;98456.28;4487713;31;20111;-79
2022/09/12 03:19:26;;;;;;;13.02;5.43;;;;;;;15.37;70.34;98451.31;4486395;32;20144;-79
2022/09/12 03:22:07;;;;;;;12.73;5.40;;;;;;;15.14;71.46;98453.16;4486469;32;20097;-79
2022/09/12 03:24:37;;;;;;;12.55;5.28;;;;;;;15.34;70.64;98457.72;4486437;32;20478;-80
2022/09/12 03:27:15;;;;;;;10.88;5.07;;;;;;;15.05;71.75;98453.91;4487600;31;20447;-80
2022/09/12 03:29:40;;;;;;;;;;;;;;;14.95;72.30;98464.38;4486585;32;20077;-80
2022/09/12 03:32:06;;;;;;;11.27;5.30;;;;;;;15.07;71.05;98466.06;4486590;32;20062;-80
2022/09/12 03:34:32;;;;;;;12.00;5.45;;;;;;;15.02;72.08;98462.91;4487466;31;20088;-80
2022/09/12 03:36:58;;;;;;;13.10;5.62;;;;;;;14.65;73.06;98464.94;4487585;31;20348;-80
2022/09/12 03:39:25;;;;;;;12.23;5.57;;;;;;;14.86;71.95;98457.97;4486276;32;20076;-79
2022/09/12 03:41:51;;;;;;;12.52;5.40;;;;;;;14.85;72.57;98466.88;4487567;31;20518;-80
2022/09/12 03:44:17;;;;;;;11.27;5.35;;;;;;;14.64;73.27;98480.00;4487573;31;20114;-80
2022/09/12 03:46:43;;;;;;;12.77;5.95;;;;;;;14.82;72.40;98474.25;4473161;32;20132;-80
2022/09/12 03:49:09;;;;;;;12.45;5.45;;;;;;;14.97;71.62;98467.75;4487408;31;20084;-80
2022/09/12 03:51:35;;;;;;;12.02;5.80;;;;;;;15.19;70.66;98469.56;4486328;32;20116;-80
2022/09/12 03:54:00;;;;;;;12.40;5.22;;;;;;;15.07;70.95;98463.41;4487271;31;20085;-79
2022/09/12 03:56:26;;;;;;;12.68;5.75;;;;;;;14.91;71.74;98457.59;4487297;31;20173;-80
2022/09/12 03:58:51;;;;;;;13.43;5.32;;;;;;;14.64;72.60;98458.78;4486057;32;20088;-80
2022/09/12 04:01:18;;;;;;;12.50;5.45;;;;;;;14.57;73.11;98462.03;4487168;31;20118;-79
2022/09/12 04:03:46;;;;;;;13.50;5.68;;;;;;;14.90;71.48;98463.88;4487453;31;20161;-79
2022/09/12 04:06:14;;;;;;;12.05;5.65;;;;;;;15.17;70.28;98471.50;4487262;31;20119;-80
2022/09/12 04:08:39;;;;;;;;;;;;;;;14.92;71.49;98475.22;4487558;31;20084;-79
2022/09/12 04:11:07;;;;;;;12.77;5.00;;;;;;;15.16;70.26;98463.66;4486498;32;19996;-80
2022/09/12 04:13:34;;;;;;;11.12;5.12;;;;;;;14.82;71.02;98459.16;4487398;31;20076;-79
2022/09/12 04:16:00;;;;;;;14.50;5.03;;;;;;;15.07;70.30;98468.72;4486077;32;20088;-79
2022/09/12 04:18:26;;;;;;;11.15;4.60;;;;;;;14.78;71.33;98468.31;4487144;31;20092;-79
2022/09/12 04:20:52;;;;;;;12.10;4.78;;;;;;;15.17;69.23;98468.00;4487139;31;20119;-80
2022/09/12 04:23:17;;;;;;;10.55;4.12;;;;;;;15.32;68.57;98467.63;4487091;31;20089;-80
2022/09/12 04:25:42;;;;;;;9.90;3.87;;;;;;;15.12;68.61;98461.25;4487241;31;20435;-80
2022/09/12 04:28:08;;;;;;;9.90;3.80;;;;;;;15.47;66.91;98454.97;4485922;32;20081;-79
2022/09/12 04:30:34;;;;;;;9.98;3.90;;;;;;;15.44;66.59;98460.50;4485877;32;20148;-80
2022/09/12 04:32:59;;;;;;;10.30;4.45;;;;;;;15.21;67.86;98459.66;4487341;31;20114;-81
2022/09/12 04:35:25;;;;;;;12.43;4.80;;;;;;;15.42;67.53;98464.25;4485983;32;20138;-80
2022/09/12 04:37:51;;;;;;;11.45;4.85;;;;;;;15.05;69.29;98475.94;4487141;31;20129;-81
2022/09/12 04:40:16;;;;;;;11.18;4.30;;;;;;;15.20;68.83;98473.03;4486130;31;20096;-80
2022/09/12 04:42:42;;;;;;;13.40;4.53;;;;;;;15.29;68.58;98467.03;4486003;32;20096;-80
2022/09/12 04:45:07;;;;;;;12.13;4.95;;;;;;;15.53;67.47;98461.59;4487060;31;20146;-80
2022/09/12 04:47:33;;;;;;;10.80;4.80;;;;;;;15.47;67.81;98468.22;4487152;31;20076;-80
2022/09/12 04:49:58;;;;;;;11.00;5.10;;;;;;;15.17;68.99;98468.84;4487038;31;20085;-80
2022/09/12 04:52:23;;;;;;;11.20;4.65;;;;;;;15.67;67.01;98468.44;4487092;31;20122;-80
2022/09/12 04:54:49;;;;;;;11.40;4.32;;;;;;;15.48;67.66;98467.25;4487154;31;20111;-80
2022/09/12 04:57:14;;;;;;;10.65;4.40;;;;;;;15.18;69.05;98477.63;4486887;32;20103;-80
2022/09/12 04:59:40;;;;;;;11.85;4.70;;;;;;;15.52;67.52;98476.66;4485799;32;20096;-80
2022/09/12 05:02:06;;;;;;;12.95;4.90;;;;;;;15.57;67.26;98476.31;4485688;32;20408;-80
2022/09/12 05:04:31;;;;;;;11.45;4.50;;;;;;;15.79;66.44;98466.63;4485574;32;20093;-80
2022/09/12 05:06:57;;;;;;;10.23;4.45;;;;;;;15.89;66.14;98479.03;4486826;31;20100;-80
2022/09/12 05:09:22;;;;;;;11.43;4.30;;;;;;;15.99;65.79;98476.44;4486854;31;20091;-80
2022/09/12 05:11:48;;;;;;;11.90;4.43;;;;;;;15.83;66.30;98473.38;4487001;31;20114;-80
2022/09/12 05:14:14;;;;;;;10.73;4.80;;;;;;;16.06;65.35;98482.97;4472515;32;20128;-80
2022/09/12 05:16:40;;;;;;;11.05;4.55;;;;;;;16.13;65.04;98485.97;4486729;32;20057;-80
2022/09/12 05:19:05;;;;;;;10.57;4.25;;;;;;;15.87;66.15;98490.75;4486747;32;20172;-80
2022/09/12 05:21:31;;;;;;;10.20;4.18;;;;;;;16.22;64.72;98495.81;4485609;32;20093;-80
2022/09/12 05:23:58;;;;;;;10.32;3.95;;;;;;;16.49;63.72;98500.66;4486848;31;20088;-80
2022/09/12 05:26:24;;;;;;;9.82;3.97;;;;;;;16.42;63.81;98499.50;4485533;32;20102;-80
2022/09/12 05:28:51;;;;;;;10.20;4.03;;;;;;;16.50;63.56;98504.19;4486764;31;20100;-81
2022/09/12 05:31:22;;;;;;;9.65;4.05;;;;;;;16.43;63.72;98505.66;4486762;31;20153;-80
2022/09/12 05:33:48;;;;;;;10.85;4.05;;;;;;;16.56;63.14;98500.16;4486578;31;20165;-80
2022/09/12 05:36:19;;;;;;;9.63;3.87;;;;;;;16.53;63.05;98509.22;4486685;31;20068;-80
2022/09/12 05:38:45;;;;;;;11.15;4.03;;;;;;;16.94;62.14;98512.94;4486644;31;20084;-80
2022/09/12 05:41:13;;;;;;;10.55;4.05;;;;;;;17.37;60.90;98503.06;4486549;32;20148;-79
2022/09/12 05:43:40;;;;;;;10.07;4.05;;;;;;;16.99;61.84;98520.50;4486657;31;20110;-80
2022/09/12 05:46:12;;;;;;;10.00;4.10;;;;;;;16.99;61.50;98513.34;4485326;32;20111;-80
2022/09/12 05:48:38;;;;;;;10.02;4.72;;;;;;;17.11;61.37;98511.47;4486658;31;20100;-80
2022/09/12 05:51:25;;;;;;;13.25;4.75;;;;;;;17.03;61.65;98519.25;4486453;31;20112;-81
2022/09/12 05:53:55;;;;;;;10.00;4.20;;;;;;;16.71;62.26;98522.81;4485604;32;20089;-81
2022/09/12 05:56:23;;;;;;;11.02;4.32;;;;;;;16.77;62.80;98526.78;4486393;31;20076;-80
2022/09/12 05:58:57;;;;;;;10.65;3.95;;;;;;;17.18;61.72;98519.78;4485272;32;20365;-80
2022/09/12 06:01:23;;;;;;;10.73;4.30;;;;;;;17.27;61.60;98524.31;4486199;31;20165;-81
2022/09/12 06:03:50;;;;;;;12.95;4.60;;;;;;;17.69;60.22;98516.19;4486292;31;20440;-81
2022/09/12 06:06:19;;;;;;;10.10;4.30;;;;;;;17.83;59.59;98515.00;4485100;32;20107;-80
2022/09/12 06:08:46;;;;;;;10.85;4.30;;;;;;;18.25;58.03;98507.66;4486185;31;20120;-82
2022/09/12 06:11:14;;;;;;;11.80;5.20;;;;;;;17.70;59.64;98515.22;4486266;31;20092;-81
2022/09/12 06:13:41;;;;;;;12.23;4.82;;;;;;;17.76;59.26;98514.69;4485175;32;20092;-83
2022/09/12 06:16:17;;;;;;;11.20;4.35;;;;;;;17.87;58.65;98513.75;4482790;31;20085;-81
2022/09/12 06:18:50;;;;;;;10.98;5.00;;;;;;;17.50;60.08;98514.31;4479392;31;20112;-80
2022/09/12 06:21:16;;;;;;;11.32;5.32;;;;;;;17.65;59.18;98520.09;4466599;31;20147;-79
2022/09/12 06:23:45;;;;;;;11.43;4.82;;;;;;;17.55;59.79;98513.91;4493192;31;20107;-80
2022/09/12 06:26:10;;;;;;;11.63;4.97;;;;;;;17.82;58.99;98521.28;4492430;31;20088;-79
2022/09/12 06:28:38;;;;;;;10.93;4.50;;;;;;;17.95;59.18;98519.25;4493767;31;20108;-79
2022/09/12 06:31:05;;;;;;;12.68;4.93;;;;;;;17.97;58.66;98521.78;4493343;31;20092;-78
2022/09/12 06:33:32;;;;;;;13.70;5.37;;;;;;;17.91;58.88;98531.16;4477999;31;20123;-79
2022/09/12 06:36:10;;;;;;;13.32;5.90;;;;;;;17.82;58.71;98529.28;4477310;31;20269;-79
2022/09/12 06:38:35;;;;;;;12.60;5.00;;;;;;;17.79;59.16;98530.41;4494072;31;20095;-79
2022/09/12 06:41:06;;;;;;;12.02;5.05;;;;;;;18.03;58.28;98527.38;4489938;31;20160;-78
2022/09/12 06:43:32;;;;;;;11.70;5.03;;;;;;;17.43;60.04;98545.97;4485955;31;20103;-82
2022/09/12 06:45:58;;;;;;;12.00;4.60;;;;;;;17.84;58.46;98522.03;4484546;32;20068;-81
2022/09/12 06:48:23;;;;;;;12.10;5.25;;;;;;;17.75;58.92;98528.13;4485545;31;20119;-82
2022/09/12 06:51:09;;;;;;;11.77;4.60;;;;;;;18.05;58.31;98530.75;4485658;31;20089;-83
2022/09/12 06:53:37;;;;;;;12.30;4.57;;;;;;;18.18;57.98;98519.84;4485633;31;20160;-81
2022/09/12 06:56:08;;;;;;;11.80;5.07;;;;;;;17.98;58.56;98526.12;4485582;31;20432;-80
2022/09/12 06:58:34;;;;;;;12.95;4.60;;;;;;;18.30;57.16;98525.06;4484342;32;20156;-80
2022/09/12 07:01:01;;;;;;;10.60;4.47;;;;;;;18.52;56.98;98521.25;4485274;31;20092;-81
2022/09/12 07:03:26;;;;;;;11.67;4.40;;;;;;;18.80;55.78;98527.59;4485725;31;20088;-80
2022/09/12 07:05:52;;;;;;;12.65;4.68;;;;;;;18.98;55.51;98533.88;4486576;32;20076;-80
2022/09/12 07:08:17;;;;;;;12.07;4.50;;;;;;;18.92;55.02;98533.62;4486531;32;20096;-80
2022/09/12 07:10:42;;;;;;;10.55;4.00;;;;;;;18.75;55.35;98535.16;4487769;31;20103;-81
2022/09/12 07:13:08;;;;;;;10.75;4.37;;;;;;;18.92;55.22;98536.28;4486393;32;20148;-81
2022/09/12 07:15:35;;;;;;;11.23;3.95;;;;;;;19.30;54.08;98538.03;4487660;31;20068;-81
2022/09/12 07:18:00;;;;;;;10.20;3.90;;;;;;;19.44;53.22;98536.72;4486772;32;20534;-80
2022/09/12 07:20:26;;;;;;;10.82;3.80;;;;;;;19.62;52.12;98539.44;4487887;31;20104;-81
2022/09/12 07:22:51;;;;;;;10.18;3.60;;;;;;;19.89;51.41;98533.28;4487819;31;20103;-81
2022/09/12 07:25:17;;;;;;;11.00;4.15;;;;;;;19.78;51.58;98539.69;4487881;31;20096;-80
2022/09/12 07:27:42;;;;;;;9.52;3.80;;;;;;;19.75;51.67;98534.62;4486563;32;20108;-81
2022/09/12 07:30:08;;;;;;;9.80;3.90;;;;;;;20.05;51.62;98540.69;4487864;31;20118;-81
2022/09/12 07:32:33;;;;;;;9.43;3.80;;;;;;;19.80;51.41;98539.56;4487922;31;20100;-81
2022/09/12 07:34:58;;;;;;;10.63;4.10;;;;;;;19.72;51.86;98548.31;4487699;31;20072;-80
2022/09/12 07:37:24;;;;;;;10.07;4.10;;;;;;;19.22;52.65;98556.62;4486369;32;20091;-81
2022/09/12 07:39:49;;;;;;;10.00;3.90;;;;;;;19.11;53.50;98551.44;4487611;31;20092;-81
2022/09/12 07:42:15;;;;;;;10.63;3.55;;;;;;;19.52;53.16;98555.53;4487337;31;20439;-81
2022/09/12 07:44:41;;;;;;;10.02;3.85;;;;;;;20.22;51.12;98557.72;4487508;31;20081;-81
2022/09/12 07:47:06;;;;;;;9.70;4.03;;;;;;;20.00;51.42;98564.34;4486334;32;20100;-81
2022/09/12 07:49:32;;;;;;;9.57;3.80;;;;;;;19.47;52.25;98551.59;4487451;31;20116;-81
2022/09/12 07:51:57;;;;;;;9.60;3.50;;;;;;;19.84;50.38;98554.31;4486222;32;20107;-81
2022/09/12 07:54:23;;;;;;;10.57;3.72;;;;;;;19.58;51.44;98559.44;4487252;31;20131;-80
2022/09/12 07:56:48;;;;;;;9.70;3.60;;;;;;;19.95;50.90;98554.13;4486321;32;20097;-81
2022/09/12 07:59:14;;;;;;;9.95;3.40;;;;;;;20.17;49.74;98560.03;4487316;31;20129;-81
2022/09/12 08:01:40;;;;;;;9.35;3.33;;;;;;;20.12;49.56;98565.81;4480673;31;210210;-81
2022/09/12 08:04:06;;;;;;;8.88;3.25;;;;;;;19.91;49.91;98551.88;4487435;32;20128;-81
2022/09/12 08:06:34;;;;;;;10.25;3.40;;;;;;;20.44;49.46;98556.47;4486180;32;20168;-80
2022/09/12 08:09:00;;;;;;;8.10;3.15;;;;;;;20.31;49.33;98556.00;4486177;32;20100;-81
2022/09/12 08:11:27;;;;;;;9.18;3.17;;;;;;;20.62;47.43;98557.31;4487466;31;20224;-81
2022/09/12 08:13:54;;;;;;;8.55;3.10;;;;;;;21.01;47.33;98558.81;4487425;31;20124;-81
2022/09/12 08:16:21;;;;;;;10.80;3.42;;;;;;;21.28;47.32;98551.66;4486118;32;20176;-81
2022/09/12 08:18:47;;;;;;;9.55;3.50;;;;;;;21.40;46.11;98556.59;4486101;32;20475;-81
2022/09/12 08:21:18;;;;;;;10.43;3.70;;;;;;;21.54;45.47;98557.03;4486079;32;20076;-81
2022/09/12 08:23:43;;;;;;;11.00;3.30;;;;;;;21.24;45.95;98556.47;4487282;31;20373;-81
2022/09/12 08:26:10;;;;;;;9.63;3.58;;;;;;;20.53;47.35;98566.25;4486002;32;20127;-81
2022/09/12 08:28:36;;;;;;;9.45;3.65;;;;;;;20.58;47.78;98574.66;4486019;32;20100;-81
2022/09/12 08:31:07;;;;;;;8.88;3.47;;;;;;;20.34;48.95;98567.25;4487187;31;20088;-80
2022/09/12 08:33:33;;;;;;;9.98;3.10;;;;;;;20.13;48.92;98580.88;4487235;31;20106;-81
2022/09/12 08:36:05;;;;;;;10.48;3.37;;;;;;;20.49;47.80;98566.69;4487124;31;20123;-81
2022/09/12 08:38:31;;;;;;;9.00;3.05;;;;;;;20.71;46.95;98568.13;4487292;31;20080;-81
2022/09/12 08:41:17;;;;;;;9.20;3.20;;;;;;;20.46;47.19;98567.84;4487149;31;20084;-80
2022/09/12 08:44:10;;;;;;;9.95;3.40;;;;;;;20.57;47.34;98566.78;4475972;32;20102;-81
2022/09/12 08:47:09;;;;;;;10.68;3.50;;;;;;;20.55;47.78;98566.94;4487214;32;20163;-81
2022/09/12 08:49:55;;;;;;;11.23;3.72;;;;;;;20.47;47.63;98560.66;4487374;31;20383;-81
2022/09/12 08:52:34;;;;;;;7.62;2.80;;;;;;;20.91;46.75;98556.22;4487365;31;20104;-81
2022/09/12 08:55:01;;;;;;;9.30;3.05;;;;;;;20.93;46.53;98540.84;4487180;31;20144;-81
2022/09/12 08:57:26;;;;;;;8.65;3.05;;;;;;;21.02;46.25;98547.13;4485848;32;20100;-81
2022/09/12 08:59:52;;;;;;;9.43;2.83;;;;;;;20.70;47.73;98553.87;4485768;32;20089;-81
2022/09/12 09:02:35;;;;;;;9.85;3.08;;;;;;;20.89;46.86;98554.72;4486836;31;20432;-81
2022/09/12 09:05:04;;;;;;;7.97;2.78;;;;;;;20.70;46.56;98545.84;4487274;31;20080;-81
2022/09/12 09:08:07;;;;;;;8.82;3.05;;;;;;;20.32;47.82;98549.62;4486911;32;20100;-81
2022/09/12 09:10:51;;;;;;;7.65;2.70;;;;;;;21.05;46.73;98538.75;4422604;32;20121;-81
2022/09/12 09:16:39;;;;;;;9.77;3.12;;;;;;;20.30;47.92;98533.75;4422641;32;20129;-81
2022/09/12 09:19:18;;;;;;;8.05;2.70;;;;;;;20.36;48.56;98545.69;4409690;32;20121;-81
2022/09/12 09:22:27;;;;;;;7.22;2.70;;;;;;;20.78;47.43;98537.91;4422540;32;20102;-81
2022/09/12 09:25:01;;;;;;;7.10;2.40;;;;;;;20.76;46.92;98550.59;4422603;32;20683;-81
2022/09/12 09:27:38;;;;;;;6.28;2.30;;;;;;;20.89;46.14;98544.00;4422124;32;20111;-81
2022/09/12 09:30:04;;;;;;;7.47;2.28;;;;;;;20.39;46.64;98554.22;4410165;32;20113;-81
2022/09/12 09:32:33;;;;;;;7.60;2.70;;;;;;;20.81;45.87;98539.44;4422729;32;20155;-81
2022/09/12 09:35:18;;;;;;;8.80;2.40;;;;;;;21.04;45.21;98541.62;4409799;32;20105;-81
2022/09/12 09:38:01;;;;;;;6.43;2.40;;;;;;;20.81;45.98;98532.22;4422474;32;20086;-81
2022/09/12 09:40:37;;;;;;;7.18;2.50;;;;;;;20.98;46.12;98538.56;4409571;32;20140;-81
2022/09/12 09:43:18;;;;;;;7.55;2.65;;;;;;;21.19;47.30;98527.50;4409661;32;20117;-81
2022/09/12 09:45:44;;;;;;;7.50;2.50;;;;;;;21.36;44.96;98536.47;4409599;32;20090;-81
2022/09/12 09:48:09;;;;;;;8.98;2.70;;;;;;;21.46;45.33;98536.38;4480554;32;20103;-81
2022/09/12 09:50:35;;;;;;;8.70;2.50;;;;;;;21.82;44.75;98532.69;4486479;31;20080;-81
2022/09/12 09:53:02;;;;;;;6.87;2.20;;;;;;;21.19;44.86;98546.25;4486589;31;20111;-81
2022/09/12 09:55:32;;;;;;;6.97;2.42;;;;;;;21.60;44.05;98538.47;4485313;32;20085;-81
2022/09/12 09:57:58;;;;;;;7.22;2.50;;;;;;;21.62;44.33;98526.75;4485226;32;20084;-81
2022/09/12 10:00:30;;;;;;;7.40;2.62;;;;;;;22.01;44.04;98535.09;4486122;31;20089;-81
2022/09/12 10:03:13;;;;;;;9.68;3.10;;;;;;;22.03;43.85;98538.47;4486413;31;20197;-81
2022/09/12 10:05:53;;;;;;;8.38;2.65;;;;;;;22.02;44.14;98531.44;4486360;31;20111;-81
2022/09/12 10:08:25;;;;;;;7.32;2.40;;;;;;;22.44;43.58;98524.31;4484984;32;20152;-81
2022/09/12 10:11:02;;;;;;;9.18;2.53;;;;;;;21.92;42.64;98531.56;4485009;32;20448;-81
2022/09/12 10:13:40;;;;;;;7.65;2.40;;;;;;;21.80;43.11;98536.34;4485044;32;20157;-81
2022/09/12 10:16:09;;;;;;;;;;;;;;;21.98;42.81;98536.28;4485435;32;20134;-81
2022/09/12 10:18:37;;;;;;;7.57;2.40;;;;;;;22.06;42.95;98540.81;4485090;32;19979;-81
2022/09/12 10:21:17;;;;;;;8.02;2.65;;;;;;;22.13;43.09;98535.63;4471768;32;20122;-81
2022/09/12 10:23:44;;;;;;;9.73;2.65;;;;;;;21.51;45.21;98550.12;4486113;31;20122;-81
2022/09/12 10:26:14;;;;;;;8.25;2.65;;;;;;;21.88;44.67;98540.91;4486085;31;20088;-80
2022/09/12 10:28:43;;;;;;;8.88;2.90;;;;;;;21.75;44.49;98548.56;4484905;32;20679;-80
2022/09/12 10:31:13;;;;;;;12.10;3.10;;;;;;;21.75;45.00;98544.06;4484806;32;20134;-81
2022/09/12 10:33:51;;;;;;;6.68;2.53;;;;;;;21.74;45.00;98539.69;4484734;32;20816;-81
2022/09/12 10:36:17;;;;;;;8.93;2.90;;;;;;;21.69;44.60;98542.03;4484648;32;20088;-81
2022/09/12 10:38:58;;;;;;;6.30;2.30;;;;;;;21.46;45.78;98535.53;4485292;32;20138;-81
2022/09/12 10:41:23;;;;;;;7.22;2.78;;;;;;;21.75;44.53;98530.66;4486835;32;20127;-81
2022/09/12 10:43:49;;;;;;;7.60;2.50;;;;;;;22.52;43.55;98518.94;4487936;31;20096;-81
2022/09/12 10:46:15;;;;;;;7.00;2.40;;;;;;;22.84;42.67;98525.34;4487918;31;20098;-81
2022/09/12 10:48:41;;;;;;;5.37;2.17;;;;;;;22.77;42.29;98514.44;4487846;31;20068;-81
2022/09/12 10:51:14;;;;;;;7.07;2.53;;;;;;;22.74;41.43;98518.28;4487953;32;20093;-81
2022/09/12 10:53:43;;;;;;;5.68;2.20;;;;;;;22.93;40.88;98514.44;4486681;32;20463;-81
2022/09/12 10:56:08;;;;;;;6.35;2.30;;;;;;;23.22;40.26;98523.81;4486663;32;20482;-81
2022/09/12 10:59:01;;;;;;;6.00;2.12;;;;;;;23.08;39.71;98519.12;4487812;31;20076;-81
2022/09/12 11:01:50;;;;;;;5.47;2.08;;;;;;;22.68;40.85;98521.66;4487717;31;20104;-81
2022/09/12 11:04:34;;;;;;;5.97;1.95;;;;;;;22.68;40.38;98510.09;4487911;31;20076;-81
2022/09/12 11:07:02;;;;;;;7.55;2.10;;;;;;;22.63;41.37;98521.31;4487882;32;20153;-81
2022/09/12 11:09:36;;;;;;;6.80;2.00;;;;;;;22.83;40.19;98524.53;4487761;31;20084;-81
2022/09/12 11:12:09;;;;;;;7.75;2.00;;;;;;;22.26;40.19;98517.25;4486579;32;20510;-81
2022/09/12 11:14:42;;;;;;;4.78;1.77;;;;;;;22.38;40.39;98521.28;4487862;31;20528;-81
2022/09/12 11:17:35;;;;;;;5.45;2.10;;;;;;;22.34;40.66;98524.47;4487657;31;20463;-81
2022/09/12 11:20:39;;;;;;;4.90;1.98;;;;;;;22.49;40.82;98522.00;4487693;31;20084;-81
2022/09/12 11:23:20;;;;;;;5.50;1.95;;;;;;;22.04;41.75;98507.97;4423493;32;20527;-81
2022/09/12 11:26:08;;;;;;;7.97;2.40;;;;;;;21.62;42.82;98514.19;4423311;32;20171;-81
2022/09/12 11:28:54;;;;;;;6.05;2.10;;;;;;;20.99;44.65;98520.66;4410482;32;20492;-81
2022/09/12 11:31:56;;;;;;;9.50;2.37;;;;;;;20.87;45.14;98520.06;4423200;32;20438;-81
2022/09/12 11:34:44;;;;;;;7.80;2.42;;;;;;;20.95;44.71;98509.41;4419410;32;20133;-81
2022/09/12 11:37:15;;;;;;;7.10;2.10;;;;;;;21.02;44.77;98512.31;4416118;32;20157;-81
2022/09/12 11:39:43;;;;;;;7.00;2.22;;;;;;;21.17;44.02;98518.78;4423130;32;20154;-81
2022/09/12 11:42:11;;;;;;;;;;;;;;;21.67;42.82;98517.22;4410836;32;20115;-81
2022/09/12 11:44:41;;;;;;;6.68;2.12;;;;;;;21.57;43.34;98519.16;4410397;32;19998;-81
2022/09/12 11:47:10;;;;;;;6.87;2.40;;;;;;;21.88;43.09;98522.13;4410388;32;20672;-81
2022/09/12 11:49:42;;;;;;;6.10;2.08;;;;;;;21.59;43.88;98530.56;4422867;32;20186;-81
2022/09/12 11:52:14;;;;;;;8.80;2.62;;;;;;;21.96;43.21;98524.00;4410247;32;20083;-81
2022/09/12 11:54:49;;;;;;;6.00;2.20;;;;;;;21.92;43.22;98518.16;4423103;32;20094;-81